createdAt,value
2023-03-05T00:03:13.558Z,1006.4
2023-03-05T00:08:19.752Z,1006.4
2023-03-05T00:13:25.800Z,1006.4
2023-03-05T00:18:31.835Z,1006.3
2023-03-05T00:23:37.935Z,1006.4
2023-03-05T00:28:44.108Z,1006.4
2023-03-05T00:33:49.175Z,1006.3
2023-03-05T00:38:55.432Z,1006.3
2023-03-05T00:44:01.381Z,1006.2
2023-03-05T00:49:07.499Z,1006.1
2023-03-05T00:54:13.710Z,1006
2023-03-05T00:59:19.705Z,1005.9
2023-03-05T01:04:25.847Z,1005.9
2023-03-05T01:09:31.900Z,1005.8
2023-03-05T01:14:37.913Z,1005.8
2023-03-05T01:19:44.040Z,1005.7
2023-03-05T01:24:50.200Z,1005.7
2023-03-05T01:29:56.321Z,1005.6
2023-03-05T01:35:02.292Z,1005.7
2023-03-05T01:40:07.410Z,1005.5
2023-03-05T01:45:13.582Z,1005.5
2023-03-05T01:50:19.670Z,1005.5
2023-03-05T01:55:25.715Z,1005.4
2023-03-05T02:00:31.847Z,1005.4
2023-03-05T02:05:37.899Z,1005.3
2023-03-05T02:10:43.975Z,1005.3
2023-03-05T02:15:49.173Z,1005.2
2023-03-05T02:20:55.223Z,1005.2
2023-03-05T02:26:01.417Z,1005.2
2023-03-05T02:31:07.407Z,1005.1
2023-03-05T02:36:13.575Z,1005.1
2023-03-05T02:41:19.661Z,1005.1
2023-03-05T02:46:25.705Z,1005
2023-03-05T02:51:31.788Z,1004.9
2023-03-05T02:56:37.882Z,1004.9
2023-03-05T03:01:43.988Z,1004.9
2023-03-05T03:06:50.089Z,1004.9
2023-03-05T03:11:56.224Z,1004.8
2023-03-05T03:17:02.260Z,1004.8
2023-03-05T03:22:07.387Z,1004.7
2023-03-05T03:27:13.468Z,1004.7
2023-03-05T03:32:19.629Z,1004.7
2023-03-05T03:37:25.714Z,1004.6
2023-03-05T03:42:31.842Z,1004.5
2023-03-05T03:47:37.894Z,1004.5
2023-03-05T03:52:43.997Z,1004.3
2023-03-05T03:57:50.073Z,1004.3
2023-03-05T04:02:56.156Z,1004.3
2023-03-05T04:08:02.252Z,1004.3
2023-03-05T04:13:08.353Z,1004.1
2023-03-05T04:18:14.452Z,1004.1
2023-03-05T04:23:20.564Z,1004
2023-03-05T04:28:25.652Z,1004
2023-03-05T04:33:31.757Z,1004
2023-03-05T04:38:37.855Z,1003.9
2023-03-05T04:43:43.956Z,1003.9
2023-03-05T04:48:50.048Z,1003.8
2023-03-05T04:53:56.141Z,1003.8
2023-03-05T04:59:02.229Z,1003.7
2023-03-05T05:04:08.348Z,1003.7
2023-03-05T05:09:14.474Z,1003.7
2023-03-05T05:14:20.519Z,1003.7
2023-03-05T05:19:26.646Z,1003.7
2023-03-05T05:24:32.787Z,1003.6
2023-03-05T05:29:38.856Z,1003.7
2023-03-05T05:34:43.920Z,1003.6
2023-03-05T05:39:50.022Z,1003.5
2023-03-05T05:44:56.132Z,1003.5
2023-03-05T05:50:02.221Z,1003.5
2023-03-05T05:55:08.328Z,1003.6
2023-03-05T06:00:14.430Z,1003.6
2023-03-05T06:05:20.509Z,1003.6
2023-03-05T06:10:26.606Z,1003.6
2023-03-05T06:15:32.773Z,1003.6
2023-03-05T06:20:38.845Z,1003.5
2023-03-05T06:25:44.969Z,1003.5
2023-03-05T06:30:51.013Z,1003.4
2023-03-05T06:35:57.119Z,1003.4
2023-03-05T06:41:02.226Z,1003.5
2023-03-05T06:46:08.302Z,1003.4
2023-03-05T06:51:14.451Z,1003.4
2023-03-05T06:56:20.557Z,1003.4
2023-03-05T07:01:26.616Z,1003.4
2023-03-05T07:06:32.705Z,1003.4
2023-03-05T07:11:38.796Z,1003.4
2023-03-05T07:16:45.066Z,1003.4
2023-03-05T07:21:50.998Z,1003.4
2023-03-05T07:26:57.073Z,1003.4
2023-03-05T07:32:03.222Z,1003.4
2023-03-05T07:37:09.442Z,1003.4
2023-03-05T07:42:15.381Z,1003.3
2023-03-05T07:47:20.503Z,1003.4
2023-03-05T07:52:26.624Z,1003.3
2023-03-05T07:57:32.793Z,1003.3
2023-03-05T08:02:38.797Z,1003.2
2023-03-05T08:07:45.012Z,1003.3
2023-03-05T08:12:51.119Z,1003.3
2023-03-05T08:17:57.064Z,1003.2
2023-03-05T08:23:03.187Z,1003.1
2023-03-05T08:28:09.284Z,1003.1
2023-03-05T08:33:15.356Z,1003.1
2023-03-05T08:38:21.456Z,1003
2023-03-05T08:43:27.566Z,1003
2023-03-05T08:48:33.651Z,1002.9
2023-03-05T08:53:38.812Z,1002.9
2023-03-05T08:58:44.857Z,1002.9
2023-03-05T09:03:50.966Z,1002.8
2023-03-05T09:08:57.078Z,1002.8
2023-03-05T09:14:03.157Z,1002.7
2023-03-05T09:19:09.257Z,1002.7
2023-03-05T09:24:15.343Z,1002.7
2023-03-05T09:29:21.437Z,1002.6
2023-03-05T09:34:27.557Z,1002.6
2023-03-05T09:39:33.630Z,1002.5
2023-03-05T09:44:39.728Z,1002.6
2023-03-05T09:49:45.836Z,1002.5
2023-03-05T09:54:51.939Z,1002.5
2023-03-05T09:59:57.047Z,1002.4
2023-03-05T10:05:03.152Z,1002.4
2023-03-05T10:10:09.230Z,1002.4
2023-03-05T10:15:15.395Z,1002.4
2023-03-05T10:20:21.459Z,1002.3
2023-03-05T10:25:27.524Z,1002.3
2023-03-05T10:30:33.640Z,1002.1
2023-03-05T10:35:39.772Z,1002
2023-03-05T10:40:45.814Z,1002
2023-03-05T10:45:51.906Z,1001.8
2023-03-05T10:56:04.148Z,1001.7
2023-03-05T11:01:10.234Z,1001.7
2023-03-05T11:06:15.320Z,1001.6
2023-03-05T11:11:21.408Z,1001.6
2023-03-05T11:16:27.538Z,1001.6
2023-03-05T11:21:33.592Z,1001.5
2023-03-05T11:26:39.726Z,1001.4
2023-03-05T11:31:45.803Z,1001.4
2023-03-05T11:36:51.979Z,1001.3
2023-03-05T11:41:57.992Z,1001.2
2023-03-05T11:47:04.116Z,1001.1
2023-03-05T11:52:10.188Z,1001.1
2023-03-05T11:57:16.435Z,1000.9
2023-03-05T12:02:22.377Z,1000.9
2023-03-05T12:07:28.484Z,1000.9
2023-03-05T12:12:33.600Z,1001.1
2023-03-05T12:17:39.693Z,1001
2023-03-05T12:22:45.884Z,1001
2023-03-05T12:27:52.063Z,1000.8
2023-03-05T12:32:57.982Z,1000.7
2023-03-05T12:38:04.084Z,1000.6
2023-03-05T12:43:10.311Z,1000.5
2023-03-05T12:48:16.353Z,1000.4
2023-03-05T12:53:22.492Z,1000.4
2023-03-05T12:58:28.501Z,1000.5
2023-03-05T13:03:34.605Z,1000.5
2023-03-05T13:08:40.791Z,1000.4
2023-03-05T13:13:45.934Z,1000.4
2023-03-05T13:18:50.948Z,1000.4
2023-03-05T13:23:56.995Z,1000.4
2023-03-05T13:29:03.143Z,1000.3
2023-03-05T13:34:09.290Z,1000.3
2023-03-05T13:39:15.400Z,1000.4
2023-03-05T13:44:21.361Z,1000.3
2023-03-05T13:49:27.516Z,1000.3
2023-03-05T13:54:33.551Z,1000.2
2023-03-05T13:59:39.729Z,1000.2
2023-03-05T14:04:45.750Z,1000.2
2023-03-05T14:09:51.921Z,1000
2023-03-05T14:14:58.091Z,1000.1
2023-03-05T14:20:04.055Z,1000
2023-03-05T14:25:09.160Z,999.9
2023-03-05T14:30:15.311Z,999.8
2023-03-05T14:35:21.349Z,999.8
2023-03-05T14:40:27.509Z,999.6
2023-03-05T14:45:33.767Z,999.5
2023-03-05T14:50:39.645Z,999.6
2023-03-05T14:55:45.922Z,999.4
2023-03-05T15:00:51.869Z,999.5
2023-03-05T15:05:57.967Z,999.3
2023-03-05T15:11:04.028Z,999.4
2023-03-05T15:16:09.152Z,999.3
2023-03-05T15:21:14.465Z,999.2
2023-03-05T15:26:20.340Z,999.1
2023-03-05T15:31:26.455Z,999.1
2023-03-05T15:36:32.545Z,999
2023-03-05T15:41:38.646Z,999
2023-03-05T15:46:44.740Z,999
2023-03-05T15:51:50.986Z,999
2023-03-05T15:56:56.935Z,998.9
2023-03-05T16:02:03.185Z,999
2023-03-05T16:07:09.134Z,999
2023-03-05T16:12:15.222Z,999
2023-03-05T16:17:21.380Z,999
2023-03-05T16:22:27.525Z,998.9
2023-03-05T16:27:32.523Z,998.8
2023-03-05T16:32:38.716Z,998.9
2023-03-05T16:37:44.857Z,998.9
2023-03-05T16:42:50.842Z,998.8
2023-03-05T16:47:57.071Z,998.8
2023-03-05T16:53:03.031Z,998.9
2023-03-05T16:58:09.259Z,999
2023-03-05T17:03:15.286Z,999
2023-03-05T17:08:21.339Z,998.8
2023-03-05T17:13:27.479Z,998.6
2023-03-05T17:18:33.519Z,998.8
2023-03-05T17:23:39.619Z,998.9
2023-03-05T17:28:45.780Z,998.8
2023-03-05T17:33:50.935Z,998.9
2023-03-05T17:38:56.932Z,998.7
2023-03-05T17:44:03.014Z,998.7
2023-03-05T17:49:09.146Z,998.8
2023-03-05T17:54:15.353Z,998.8
2023-03-05T17:59:21.301Z,998.7
2023-03-05T18:04:27.439Z,998.6
2023-03-05T18:09:33.637Z,998.6
2023-03-05T18:14:39.643Z,998.5
2023-03-05T18:19:45.709Z,998.4
2023-03-05T18:24:51.797Z,998.4
2023-03-05T18:29:57.907Z,998.4
2023-03-05T18:35:03.975Z,998.4
2023-03-05T18:40:09.108Z,998.3
2023-03-05T18:45:15.193Z,998.3
2023-03-05T18:50:21.293Z,998.2
2023-03-05T18:55:27.380Z,998.1
2023-03-05T19:00:33.479Z,998.1
2023-03-05T19:05:39.669Z,998.1
2023-03-05T19:10:45.795Z,998.1
2023-03-05T19:15:51.807Z,998.1
2023-03-05T19:20:57.021Z,998.1
2023-03-05T19:26:02.993Z,998.1
2023-03-05T19:31:09.115Z,998.1
2023-03-05T19:36:15.332Z,998
2023-03-05T19:41:21.376Z,997.9
2023-03-05T19:46:27.490Z,997.9
2023-03-05T19:51:33.741Z,998.1
2023-03-05T19:56:39.728Z,997.9
2023-03-05T20:01:45.825Z,997.9
2023-03-05T20:06:51.776Z,998
2023-03-05T20:17:04.077Z,997.9
2023-03-05T20:22:10.129Z,997.9
2023-03-05T20:27:15.176Z,997.8
2023-03-05T20:32:21.279Z,997.7
2023-03-05T20:37:27.364Z,997.7
2023-03-05T20:42:33.482Z,997.7
2023-03-05T20:47:39.571Z,997.7
2023-03-05T20:52:45.824Z,997.6
2023-03-05T20:57:51.787Z,997.5
2023-03-05T21:02:57.978Z,997.4
2023-03-05T21:08:04.009Z,997.5
2023-03-05T21:13:10.071Z,997.3
2023-03-05T21:18:16.170Z,997.3
2023-03-05T21:23:22.265Z,997.3
2023-03-05T21:28:28.417Z,997.3
2023-03-05T21:33:33.515Z,997.1
2023-03-05T21:38:39.599Z,997.1
2023-03-05T21:43:45.777Z,997.1
2023-03-05T21:48:51.790Z,997.1
2023-03-05T21:53:57.863Z,997
2023-03-05T21:59:04.078Z,996.9
2023-03-05T22:04:10.052Z,996.9
2023-03-05T22:09:16.140Z,996.8
2023-03-05T22:14:22.393Z,996.9
2023-03-05T22:19:28.344Z,996.7
2023-03-05T22:24:34.438Z,996.7
2023-03-05T22:29:40.567Z,996.6
2023-03-05T22:34:46.678Z,996.6
2023-03-05T22:39:51.823Z,996.6
2023-03-05T22:44:57.847Z,996.6
2023-03-05T22:50:03.943Z,996.5
2023-03-05T22:55:10.166Z,996.5
2023-03-05T23:00:16.138Z,996.4
2023-03-05T23:05:22.353Z,996.4
2023-03-05T23:10:28.416Z,996.3
2023-03-05T23:15:34.464Z,996.2
2023-03-05T23:20:40.545Z,996.1
2023-03-05T23:25:46.764Z,996.2
2023-03-05T23:30:52.727Z,996.2
2023-03-05T23:35:58.842Z,996.2
2023-03-05T23:41:04.974Z,996.2
2023-03-05T23:46:10.081Z,996.2
2023-03-05T23:51:16.265Z,996.2
2023-03-05T23:56:22.334Z,996.1
